If you wish to contribute or participate in the discussions about articles you are invited to join SKYbrary as a registered user

 Actions

Lord Howe Island Airport

From SKYbrary Wiki

YLHI
Airport
ICAO: YLHI – IATA: LDH
Summary
Name Lord Howe Island Airport
Region Asia and Pacific
Territory Australia AU.gif
Location Lord Howe Island, New South Wales
Serving Lord Howe Island
Elevation 1.524 m
5 ft
5 ft1.524 m
Type small airport
Coordinates 31° 32' 17.88" S, 159° 4' 37.20" E
Runways
Designator Length Width Surface ROPS
10/28 886 m2,906.824 ft
0 m0 ft
B yes/yes


METAR
Observation YLHI 231200Z AUTO 11009KT 9999 // OVC051 21/12 Q1025
Station Lord Howe Island Airport
Date/Time 23 April 2019 12:00:00
Wind direction 110°
Wind speed 09 kts
Lowest cloud amount overcast
Temperature 21°C
Dew point 12°C
Humidity 56%
QNH 1025 hPa
Weather condition n/a